Pagrindinis puslapis
METAR-TAF:

METAR-TAF

Oro uostai :

Jorge Newbery oro uostas

Buenos Airės, Argentina

platuma: 34-34S, ilguma: 058-25W, Aukštis: 6 m

Dabartinis oras

Ataskaita buvo paskelbta 24 minutes, ne 21:00 UTC
Vėjas 9 kt iš Pietų/Pietvakarių
Temperatūra 24°C
Drėgmė 22%
Slėgis 1011 hPa
Matomumas 10 km arba daugiau
Mažai debesys ne aukštis 4000 ft

METAR: SABE 122100Z 20009KT 9999 FEW040 24/01 Q1011 NOSIG

Laikas: 18:24 (21:24 UTC)

Prognozė

Ataskaita buvo paskelbta 4 valandos ir 24 minutes, ne 17:00 UTC
Prognozė galioja nuo 12 metu 18 UTC su 13 metu 18 UTC
Vėjas 15 kt iš Pietvakarių su gūsio iki 25 kt
Matomumas 10 km arba daugiau
nėra debesų žemiau 1500 m ir nėra kamuolinių lietaus debesų
Tapsmas
nuo 12 metu 20 UTC su 12 metu 23 UTC
Vėjas 15 kt iš Pietų
Tapsmas
nuo 13 metu 05 UTC su 13 metu 08 UTC
Vėjas 10 kt iš Rytų/Pietryčių
Tapsmas
nuo 13 metu 11 UTC su 13 metu 14 UTC
Vėjas 10 kt iš Rytų/Šiaurės Rytų

TAF: SABE 121700Z 1218/1318 23015G25KT CAVOK TX26/1218Z TN18/1309Z BECMG 1220/1223 18015KT BECMG 1305/1308 12010KT BECMG 1311/1314 07010KT

Orai ataskaitas ir orų prognozės (METAR, TAF).

turimą stotys yra geltonos ir raudonos taškus žemėlapyje.

Perkelti pele per norėdami pamatyti stoties vardą.

Tada spustelėkite, norėdami matyti oro stebėjimo ir prognozės.

Norėdami pakeisti žemėlapį: spustelėkite ant žalios mygtukų su juodo kryžiaus žemyn,; žalią mygtuką su brūkšneliu, jei norite nutolinti; arba žalių rodyklių gretimoms žemėlapius.


METAR-TAF: